sensor_id;sensor_type;location;lat;lon;timestamp;P1;P2;P0
49686;PMS5003;36064;38.180;-122.272;2023-08-30T00:00:00;8.2;7.4;
49686;PMS5003;36064;38.180;-122.272;2023-08-30T00:05:01;11.8;10.6;
49686;PMS5003;36064;38.180;-122.272;2023-08-30T00:10:00;7.2;6.8;
49686;PMS5003;36064;38.180;-122.272;2023-08-30T00:15:00;9.6;8.8;
49686;PMS5003;36064;38.180;-122.272;2023-08-30T00:20:00;8.6;7.0;
49686;PMS5003;36064;38.180;-122.272;2023-08-30T00:25:01;7.0;6.4;
49686;PMS5003;36064;38.180;-122.272;2023-08-30T00:30:00;7.2;6.4;
49686;PMS5003;36064;38.180;-122.272;2023-08-30T00:35:00;10.2;9.8;
49686;PMS5003;36064;38.180;-122.272;2023-08-30T00:40:01;10.2;8.8;
49686;PMS5003;36064;38.180;-122.272;2023-08-30T00:45:00;10.2;8.8;
49686;PMS5003;36064;38.180;-122.272;2023-08-30T00:50:00;9.0;8.6;
49686;PMS5003;36064;38.180;-122.272;2023-08-30T00:55:01;6.8;6.4;
49686;PMS5003;36064;38.180;-122.272;2023-08-30T01:00:00;8.2;8.2;
49686;PMS5003;36064;38.180;-122.272;2023-08-30T01:05:00;9.6;8.0;
49686;PMS5003;36064;38.180;-122.272;2023-08-30T01:10:00;9.4;7.8;
49686;PMS5003;36064;38.180;-122.272;2023-08-30T01:15:02;9.6;9.6;
49686;PMS5003;36064;38.180;-122.272;2023-08-30T01:20:01;12.8;12.0;
49686;PMS5003;36064;38.180;-122.272;2023-08-30T01:25:09;10.59;10.8;
49686;PMS5003;36064;38.180;-122.272;2023-08-30T01:30:00;12.2;12.2;
49686;PMS5003;36064;38.180;-122.272;2023-08-30T01:35:00;11.2;10.0;
49686;PMS5003;36064;38.180;-122.272;2023-08-30T01:40:01;11.6;11.0;
49686;PMS5003;36064;38.180;-122.272;2023-08-30T01:45:00;12.4;11.0;
49686;PMS5003;36064;38.180;-122.272;2023-08-30T01:50:00;15.0;12.6;
49686;PMS5003;36064;38.180;-122.272;2023-08-30T01:55:00;10.0;10.0;
49686;PMS5003;36064;38.180;-122.272;2023-08-30T02:00:00;10.6;11.4;
49686;PMS5003;36064;38.180;-122.272;2023-08-30T02:05:01;13.6;13.4;
49686;PMS5003;36064;38.180;-122.272;2023-08-30T02:10:02;14.4;14.4;
49686;PMS5003;36064;38.180;-122.272;2023-08-30T02:15:00;15.4;13.8;
49686;PMS5003;36064;38.180;-122.272;2023-08-30T02:20:00;17.2;14.4;
49686;PMS5003;36064;38.180;-122.272;2023-08-30T02:25:00;16.0;13.4;
49686;PMS5003;36064;38.180;-122.272;2023-08-30T02:30:00;12.6;11.2;
49686;PMS5003;36064;38.180;-122.272;2023-08-30T02:35:01;11.8;11.0;
49686;PMS5003;36064;38.180;-122.272;2023-08-30T02:40:01;13.8;13.0;
49686;PMS5003;36064;38.180;-122.272;2023-08-30T02:45:00;13.6;13.2;
49686;PMS5003;36064;38.180;-122.272;2023-08-30T02:50:00;15.2;14.4;
49686;PMS5003;36064;38.180;-122.272;2023-08-30T02:55:00;17.51;15.71;
49686;PMS5003;36064;38.180;-122.272;2023-08-30T03:00:00;18.88;16.66;
49686;PMS5003;36064;38.180;-122.272;2023-08-30T03:05:00;15.2;15.0;
49686;PMS5003;36064;38.180;-122.272;2023-08-30T03:10:00;16.4;15.6;
49686;PMS5003;36064;38.180;-122.272;2023-08-30T03:15:00;15.0;14.0;
49686;PMS5003;36064;38.180;-122.272;2023-08-30T03:20:00;18.8;18.2;
49686;PMS5003;36064;38.180;-122.272;2023-08-30T03:25:00;14.8;13.4;
49686;PMS5003;36064;38.180;-122.272;2023-08-30T03:30:00;14.8;14.0;
49686;PMS5003;36064;38.180;-122.272;2023-08-30T03:35:00;13.2;13.2;
49686;PMS5003;36064;38.180;-122.272;2023-08-30T03:40:00;17.4;14.8;
49686;PMS5003;36064;38.180;-122.272;2023-08-30T03:45:00;11.4;11.0;
49686;PMS5003;36064;38.180;-122.272;2023-08-30T03:50:00;12.4;11.4;
49686;PMS5003;36064;38.180;-122.272;2023-08-30T03:55:00;13.0;12.2;
49686;PMS5003;36064;38.180;-122.272;2023-08-30T04:00:00;15.2;14.0;
49686;PMS5003;36064;38.180;-122.272;2023-08-30T04:05:00;14.2;14.0;
49686;PMS5003;36064;38.180;-122.272;2023-08-30T04:10:00;14.4;12.2;
49686;PMS5003;36064;38.180;-122.272;2023-08-30T04:15:00;16.8;14.8;
49686;PMS5003;36064;38.180;-122.272;2023-08-30T04:20:00;16.4;15.4;
49686;PMS5003;36064;38.180;-122.272;2023-08-30T04:25:00;16.4;15.4;
49686;PMS5003;36064;38.180;-122.272;2023-08-30T04:30:00;14.61;13.62;
49686;PMS5003;36064;38.180;-122.272;2023-08-30T04:35:00;13.2;11.4;
49686;PMS5003;36064;38.180;-122.272;2023-08-30T04:40:00;13.4;13.0;
49686;PMS5003;36064;38.180;-122.272;2023-08-30T04:45:00;14.2;13.4;
49686;PMS5003;36064;38.180;-122.272;2023-08-30T04:50:01;16.0;14.8;
49686;PMS5003;36064;38.180;-122.272;2023-08-30T04:55:00;17.8;17.8;
49686;PMS5003;36064;38.180;-122.272;2023-08-30T05:00:00;16.0;15.2;
49686;PMS5003;36064;38.180;-122.272;2023-08-30T05:05:00;14.0;12.8;
49686;PMS5003;36064;38.180;-122.272;2023-08-30T05:10:00;15.4;12.8;
49686;PMS5003;36064;38.180;-122.272;2023-08-30T05:15:00;15.6;13.6;
49686;PMS5003;36064;38.180;-122.272;2023-08-30T05:20:00;14.4;13.6;
49686;PMS5003;36064;38.180;-122.272;2023-08-30T05:25:00;13.4;13.4;
49686;PMS5003;36064;38.180;-122.272;2023-08-30T05:30:00;16.2;14.0;
49686;PMS5003;36064;38.180;-122.272;2023-08-30T05:35:00;17.0;14.8;
49686;PMS5003;36064;38.180;-122.272;2023-08-30T05:40:01;16.0;14.0;
49686;PMS5003;36064;38.180;-122.272;2023-08-30T05:45:00;17.8;15.6;
49686;PMS5003;36064;38.180;-122.272;2023-08-30T05:50:00;13.0;11.8;
49686;PMS5003;36064;38.180;-122.272;2023-08-30T05:55:00;15.0;12.6;
49686;PMS5003;36064;38.180;-122.272;2023-08-30T06:00:00;16.2;13.6;
49686;PMS5003;36064;38.180;-122.272;2023-08-30T06:05:00;15.6;14.4;
49686;PMS5003;36064;38.180;-122.272;2023-08-30T06:10:00;19.8;18.4;
49686;PMS5003;36064;38.180;-122.272;2023-08-30T06:15:00;17.4;15.2;
49686;PMS5003;36064;38.180;-122.272;2023-08-30T06:20:00;17.4;16.6;
49686;PMS5003;36064;38.180;-122.272;2023-08-30T06:25:00;17.2;14.8;
49686;PMS5003;36064;38.180;-122.272;2023-08-30T06:30:00;16.6;16.2;
49686;PMS5003;36064;38.180;-122.272;2023-08-30T06:35:01;16.6;16.0;
49686;PMS5003;36064;38.180;-122.272;2023-08-30T06:40:00;18.2;15.4;
49686;PMS5003;36064;38.180;-122.272;2023-08-30T06:45:00;15.2;14.0;
49686;PMS5003;36064;38.180;-122.272;2023-08-30T06:50:00;21.0;19.2;
49686;PMS5003;36064;38.180;-122.272;2023-08-30T06:55:00;16.4;14.8;
49686;PMS5003;36064;38.180;-122.272;2023-08-30T07:00:00;15.6;14.0;
49686;PMS5003;36064;38.180;-122.272;2023-08-30T07:05:00;15.0;14.6;
49686;PMS5003;36064;38.180;-122.272;2023-08-30T07:10:00;16.8;16.0;
49686;PMS5003;36064;38.180;-122.272;2023-08-30T07:15:01;16.2;15.6;
49686;PMS5003;36064;38.180;-122.272;2023-08-30T07:20:00;19.4;16.8;
49686;PMS5003;36064;38.180;-122.272;2023-08-30T07:25:00;19.0;18.2;
49686;PMS5003;36064;38.180;-122.272;2023-08-30T07:30:06;16.4;15.6;
49686;PMS5003;36064;38.180;-122.272;2023-08-30T07:35:00;18.6;15.8;
49686;PMS5003;36064;38.180;-122.272;2023-08-30T07:40:01;16.8;16.0;
49686;PMS5003;36064;38.180;-122.272;2023-08-30T07:45:00;17.8;15.6;
49686;PMS5003;36064;38.180;-122.272;2023-08-30T07:50:00;16.0;15.4;
49686;PMS5003;36064;38.180;-122.272;2023-08-30T07:55:00;18.0;15.0;
49686;PMS5003;36064;38.180;-122.272;2023-08-30T08:00:00;17.8;16.2;
49686;PMS5003;36064;38.180;-122.272;2023-08-30T08:05:00;17.4;15.6;
49686;PMS5003;36064;38.180;-122.272;2023-08-30T08:10:00;18.4;17.6;
49686;PMS5003;36064;38.180;-122.272;2023-08-30T08:25:00;12.2;12.0;
49686;PMS5003;36064;38.180;-122.272;2023-08-30T08:30:00;13.0;12.6;
49686;PMS5003;36064;38.180;-122.272;2023-08-30T08:35:00;14.2;12.4;
49686;PMS5003;36064;38.180;-122.272;2023-08-30T08:40:00;16.0;12.8;
49686;PMS5003;36064;38.180;-122.272;2023-08-30T08:45:00;17.4;15.4;
49686;PMS5003;36064;38.180;-122.272;2023-08-30T08:50:00;16.2;14.2;
49686;PMS5003;36064;38.180;-122.272;2023-08-30T08:55:00;14.4;13.2;
49686;PMS5003;36064;38.180;-122.272;2023-08-30T09:00:00;15.6;14.6;
49686;PMS5003;36064;38.180;-122.272;2023-08-30T09:05:00;18.2;17.0;
49686;PMS5003;36064;38.180;-122.272;2023-08-30T09:10:01;13.6;13.4;
49686;PMS5003;36064;38.180;-122.272;2023-08-30T09:15:00;19.6;17.8;
49686;PMS5003;36064;38.180;-122.272;2023-08-30T09:20:05;17.0;15.8;
49686;PMS5003;36064;38.180;-122.272;2023-08-30T09:25:00;19.6;16.8;
49686;PMS5003;36064;38.180;-122.272;2023-08-30T09:30:00;17.8;15.4;
49686;PMS5003;36064;38.180;-122.272;2023-08-30T09:35:00;17.4;16.4;
49686;PMS5003;36064;38.180;-122.272;2023-08-30T09:40:00;14.6;13.2;
49686;PMS5003;36064;38.180;-122.272;2023-08-30T09:45:01;19.0;17.0;
49686;PMS5003;36064;38.180;-122.272;2023-08-30T09:50:00;17.6;16.6;
49686;PMS5003;36064;38.180;-122.272;2023-08-30T09:55:00;17.2;16.0;
49686;PMS5003;36064;38.180;-122.272;2023-08-30T10:00:00;16.6;15.0;
49686;PMS5003;36064;38.180;-122.272;2023-08-30T10:05:00;22.8;19.6;
49686;PMS5003;36064;38.180;-122.272;2023-08-30T10:10:00;18.0;15.8;
49686;PMS5003;36064;38.180;-122.272;2023-08-30T10:15:00;13.6;13.6;
49686;PMS5003;36064;38.180;-122.272;2023-08-30T10:20:01;16.8;15.6;
49686;PMS5003;36064;38.180;-122.272;2023-08-30T10:25:01;15.8;14.2;
49686;PMS5003;36064;38.180;-122.272;2023-08-30T10:30:01;16.4;13.8;
49686;PMS5003;36064;38.180;-122.272;2023-08-30T10:35:01;18.2;16.8;
49686;PMS5003;36064;38.180;-122.272;2023-08-30T10:40:01;20.6;19.4;
49686;PMS5003;36064;38.180;-122.272;2023-08-30T10:45:01;18.6;15.4;
49686;PMS5003;36064;38.180;-122.272;2023-08-30T10:50:00;18.2;16.4;
49686;PMS5003;36064;38.180;-122.272;2023-08-30T10:55:08;16.0;15.6;
49686;PMS5003;36064;38.180;-122.272;2023-08-30T11:00:04;18.0;17.2;
49686;PMS5003;36064;38.180;-122.272;2023-08-30T11:05:00;17.6;15.4;
49686;PMS5003;36064;38.180;-122.272;2023-08-30T11:10:00;17.4;16.6;
49686;PMS5003;36064;38.180;-122.272;2023-08-30T11:15:00;19.6;18.8;
49686;PMS5003;36064;38.180;-122.272;2023-08-30T11:20:05;18.2;16.4;
49686;PMS5003;36064;38.180;-122.272;2023-08-30T11:25:00;16.4;14.8;
49686;PMS5003;36064;38.180;-122.272;2023-08-30T11:30:00;18.2;17.0;
49686;PMS5003;36064;38.180;-122.272;2023-08-30T11:35:00;14.6;13.2;
49686;PMS5003;36064;38.180;-122.272;2023-08-30T11:40:01;16.4;15.6;
49686;PMS5003;36064;38.180;-122.272;2023-08-30T11:45:00;18.6;17.4;
49686;PMS5003;36064;38.180;-122.272;2023-08-30T11:50:00;19.4;16.4;
49686;PMS5003;36064;38.180;-122.272;2023-08-30T11:55:00;17.8;16.6;
49686;PMS5003;36064;38.180;-122.272;2023-08-30T12:00:06;18.6;17.8;
49686;PMS5003;36064;38.180;-122.272;2023-08-30T12:05:00;16.8;15.4;
49686;PMS5003;36064;38.180;-122.272;2023-08-30T12:10:04;19.0;16.4;
49686;PMS5003;36064;38.180;-122.272;2023-08-30T12:15:00;19.6;17.2;
49686;PMS5003;36064;38.180;-122.272;2023-08-30T12:20:00;18.6;16.4;
49686;PMS5003;36064;38.180;-122.272;2023-08-30T12:25:00;18.2;16.4;
49686;PMS5003;36064;38.180;-122.272;2023-08-30T12:30:01;16.2;16.0;
49686;PMS5003;36064;38.180;-122.272;2023-08-30T12:35:00;18.4;17.6;
49686;PMS5003;36064;38.180;-122.272;2023-08-30T12:40:01;22.0;21.4;
49686;PMS5003;36064;38.180;-122.272;2023-08-30T12:45:00;18.0;16.4;
49686;PMS5003;36064;38.180;-122.272;2023-08-30T12:50:00;18.6;17.8;
49686;PMS5003;36064;38.180;-122.272;2023-08-30T12:55:00;22.4;21.2;
49686;PMS5003;36064;38.180;-122.272;2023-08-30T13:00:00;16.4;16.0;
49686;PMS5003;36064;38.180;-122.272;2023-08-30T13:05:00;19.6;18.2;
49686;PMS5003;36064;38.180;-122.272;2023-08-30T13:10:00;22.0;21.0;
49686;PMS5003;36064;38.180;-122.272;2023-08-30T13:15:00;21.2;18.8;
49686;PMS5003;36064;38.180;-122.272;2023-08-30T13:20:00;19.6;17.6;
49686;PMS5003;36064;38.180;-122.272;2023-08-30T13:25:00;21.2;19.8;
49686;PMS5003;36064;38.180;-122.272;2023-08-30T13:30:00;18.8;17.2;
49686;PMS5003;36064;38.180;-122.272;2023-08-30T13:35:00;21.6;21.2;
49686;PMS5003;36064;38.180;-122.272;2023-08-30T13:40:00;24.8;22.4;
49686;PMS5003;36064;38.180;-122.272;2023-08-30T13:45:00;20.4;18.4;
49686;PMS5003;36064;38.180;-122.272;2023-08-30T13:50:00;19.0;18.0;
49686;PMS5003;36064;38.180;-122.272;2023-08-30T13:55:00;19.4;17.0;
49686;PMS5003;36064;38.180;-122.272;2023-08-30T14:00:00;20.2;18.2;
49686;PMS5003;36064;38.180;-122.272;2023-08-30T14:05:00;22.0;18.0;
49686;PMS5003;36064;38.180;-122.272;2023-08-30T14:10:00;22.8;19.2;
49686;PMS5003;36064;38.180;-122.272;2023-08-30T14:15:00;21.2;19.2;
49686;PMS5003;36064;38.180;-122.272;2023-08-30T14:20:00;19.6;18.8;
49686;PMS5003;36064;38.180;-122.272;2023-08-30T14:25:01;19.6;17.6;
49686;PMS5003;36064;38.180;-122.272;2023-08-30T14:30:00;24.0;21.2;
49686;PMS5003;36064;38.180;-122.272;2023-08-30T14:35:02;21.4;20.6;
49686;PMS5003;36064;38.180;-122.272;2023-08-30T14:40:01;24.0;22.0;
49686;PMS5003;36064;38.180;-122.272;2023-08-30T14:45:00;23.6;18.6;
49686;PMS5003;36064;38.180;-122.272;2023-08-30T14:50:00;25.2;21.4;
49686;PMS5003;36064;38.180;-122.272;2023-08-30T14:55:00;22.4;20.8;
49686;PMS5003;36064;38.180;-122.272;2023-08-30T15:00:00;21.8;21.0;
49686;PMS5003;36064;38.180;-122.272;2023-08-30T15:05:00;21.8;20.6;
49686;PMS5003;36064;38.180;-122.272;2023-08-30T15:10:00;18.2;16.8;
49686;PMS5003;36064;38.180;-122.272;2023-08-30T15:15:00;20.8;18.2;
49686;PMS5003;36064;38.180;-122.272;2023-08-30T15:20:00;20.8;20.2;
49686;PMS5003;36064;38.180;-122.272;2023-08-30T15:25:00;19.4;17.8;
49686;PMS5003;36064;38.180;-122.272;2023-08-30T15:30:00;20.6;19.0;
49686;PMS5003;36064;38.180;-122.272;2023-08-30T15:35:00;25.8;24.2;
49686;PMS5003;36064;38.180;-122.272;2023-08-30T15:40:01;27.8;25.6;
49686;PMS5003;36064;38.180;-122.272;2023-08-30T15:45:00;25.4;25.4;
49686;PMS5003;36064;38.180;-122.272;2023-08-30T15:50:00;25.8;24.8;
49686;PMS5003;36064;38.180;-122.272;2023-08-30T15:55:00;27.4;26.8;
49686;PMS5003;36064;38.180;-122.272;2023-08-30T16:00:00;26.2;24.4;
49686;PMS5003;36064;38.180;-122.272;2023-08-30T16:05:00;27.6;25.8;
49686;PMS5003;36064;38.180;-122.272;2023-08-30T16:10:00;28.0;23.4;
49686;PMS5003;36064;38.180;-122.272;2023-08-30T16:15:00;31.2;27.4;
49686;PMS5003;36064;38.180;-122.272;2023-08-30T16:20:00;26.2;24.8;
49686;PMS5003;36064;38.180;-122.272;2023-08-30T16:25:00;25.0;23.6;
49686;PMS5003;36064;38.180;-122.272;2023-08-30T16:30:00;28.4;27.6;
49686;PMS5003;36064;38.180;-122.272;2023-08-30T16:35:00;26.6;25.0;
49686;PMS5003;36064;38.180;-122.272;2023-08-30T16:40:00;28.6;27.4;
49686;PMS5003;36064;38.180;-122.272;2023-08-30T16:45:00;25.0;23.2;
49686;PMS5003;36064;38.180;-122.272;2023-08-30T16:50:00;24.0;23.4;
49686;PMS5003;36064;38.180;-122.272;2023-08-30T16:55:00;32.0;28.6;
49686;PMS5003;36064;38.180;-122.272;2023-08-30T17:00:00;41.8;34.2;
49686;PMS5003;36064;38.180;-122.272;2023-08-30T17:05:00;46.8;39.0;
49686;PMS5003;36064;38.180;-122.272;2023-08-30T17:10:00;48.0;40.4;
49686;PMS5003;36064;38.180;-122.272;2023-08-30T17:15:00;44.4;37.4;
49686;PMS5003;36064;38.180;-122.272;2023-08-30T17:20:00;46.4;38.4;
49686;PMS5003;36064;38.180;-122.272;2023-08-30T17:25:01;53.6;41.4;
49686;PMS5003;36064;38.180;-122.272;2023-08-30T17:30:00;52.8;43.0;
49686;PMS5003;36064;38.180;-122.272;2023-08-30T17:35:00;49.0;41.4;
49686;PMS5003;36064;38.180;-122.272;2023-08-30T17:40:00;49.2;41.4;
49686;PMS5003;36064;38.180;-122.272;2023-08-30T17:45:00;50.6;42.0;
49686;PMS5003;36064;38.180;-122.272;2023-08-30T17:50:00;55.0;44.2;
49686;PMS5003;36064;38.180;-122.272;2023-08-30T17:55:00;52.2;43.0;
49686;PMS5003;36064;38.180;-122.272;2023-08-30T18:00:00;53.8;44.0;
49686;PMS5003;36064;38.180;-122.272;2023-08-30T18:05:00;54.2;44.6;
49686;PMS5003;36064;38.180;-122.272;2023-08-30T18:10:00;55.0;45.6;
49686;PMS5003;36064;38.180;-122.272;2023-08-30T18:15:00;55.8;45.2;
49686;PMS5003;36064;38.180;-122.272;2023-08-30T18:20:00;56.8;44.6;
49686;PMS5003;36064;38.180;-122.272;2023-08-30T18:25:00;61.2;48.6;
49686;PMS5003;36064;38.180;-122.272;2023-08-30T18:30:00;58.0;48.4;
49686;PMS5003;36064;38.180;-122.272;2023-08-30T18:35:00;61.2;48.0;
49686;PMS5003;36064;38.180;-122.272;2023-08-30T18:40:00;57.6;47.2;
49686;PMS5003;36064;38.180;-122.272;2023-08-30T18:45:00;61.8;49.8;
49686;PMS5003;36064;38.180;-122.272;2023-08-30T18:50:00;59.6;48.6;
49686;PMS5003;36064;38.180;-122.272;2023-08-30T18:55:00;64.6;51.2;
49686;PMS5003;36064;38.180;-122.272;2023-08-30T19:00:00;62.6;49.8;
49686;PMS5003;36064;38.180;-122.272;2023-08-30T19:05:00;62.2;50.6;
49686;PMS5003;36064;38.180;-122.272;2023-08-30T19:10:00;63.0;49.8;
49686;PMS5003;36064;38.180;-122.272;2023-08-30T19:15:00;61.2;49.4;
49686;PMS5003;36064;38.180;-122.272;2023-08-30T19:20:00;61.2;48.6;
49686;PMS5003;36064;38.180;-122.272;2023-08-30T19:25:00;62.2;50.8;
49686;PMS5003;36064;38.180;-122.272;2023-08-30T19:30:00;63.8;53.0;
49686;PMS5003;36064;38.180;-122.272;2023-08-30T19:35:00;66.6;54.0;
49686;PMS5003;36064;38.180;-122.272;2023-08-30T19:40:00;65.2;52.8;
49686;PMS5003;36064;38.180;-122.272;2023-08-30T19:45:00;66.2;52.8;
49686;PMS5003;36064;38.180;-122.272;2023-08-30T19:50:00;65.6;53.8;
49686;PMS5003;36064;38.180;-122.272;2023-08-30T19:55:00;62.8;50.6;
49686;PMS5003;36064;38.180;-122.272;2023-08-30T20:00:00;65.8;51.6;
49686;PMS5003;36064;38.180;-122.272;2023-08-30T20:05:00;67.8;53.6;
49686;PMS5003;36064;38.180;-122.272;2023-08-30T20:10:01;66.0;52.2;
49686;PMS5003;36064;38.180;-122.272;2023-08-30T20:15:00;68.6;56.0;
49686;PMS5003;36064;38.180;-122.272;2023-08-30T20:20:00;68.0;55.0;
49686;PMS5003;36064;38.180;-122.272;2023-08-30T20:25:00;67.0;51.2;
49686;PMS5003;36064;38.180;-122.272;2023-08-30T20:30:00;67.0;51.8;
49686;PMS5003;36064;38.180;-122.272;2023-08-30T20:35:00;66.8;53.8;
49686;PMS5003;36064;38.180;-122.272;2023-08-30T20:40:02;65.6;52.2;
49686;PMS5003;36064;38.180;-122.272;2023-08-30T20:45:00;64.0;51.4;
49686;PMS5003;36064;38.180;-122.272;2023-08-30T20:50:00;66.6;53.4;
49686;PMS5003;36064;38.180;-122.272;2023-08-30T20:55:00;62.2;50.8;
49686;PMS5003;36064;38.180;-122.272;2023-08-30T21:00:00;64.8;50.8;
49686;PMS5003;36064;38.180;-122.272;2023-08-30T21:05:00;65.0;50.4;
49686;PMS5003;36064;38.180;-122.272;2023-08-30T21:10:00;64.4;52.0;
49686;PMS5003;36064;38.180;-122.272;2023-08-30T21:15:00;65.2;50.6;
49686;PMS5003;36064;38.180;-122.272;2023-08-30T21:20:00;60.6;49.6;
49686;PMS5003;36064;38.180;-122.272;2023-08-30T21:25:00;64.6;50.6;
49686;PMS5003;36064;38.180;-122.272;2023-08-30T21:30:00;63.8;50.6;
49686;PMS5003;36064;38.180;-122.272;2023-08-30T21:35:00;61.2;48.6;
49686;PMS5003;36064;38.180;-122.272;2023-08-30T21:40:00;57.6;47.2;
49686;PMS5003;36064;38.180;-122.272;2023-08-30T21:45:01;59.2;48.6;
49686;PMS5003;36064;38.180;-122.272;2023-08-30T21:50:00;62.0;50.0;
49686;PMS5003;36064;38.180;-122.272;2023-08-30T21:55:00;60.8;49.4;
49686;PMS5003;36064;38.180;-122.272;2023-08-30T22:00:00;59.6;48.4;
49686;PMS5003;36064;38.180;-122.272;2023-08-30T22:05:00;57.6;47.4;
49686;PMS5003;36064;38.180;-122.272;2023-08-30T22:10:00;58.6;48.8;
49686;PMS5003;36064;38.180;-122.272;2023-08-30T22:15:00;56.8;46.2;
49686;PMS5003;36064;38.180;-122.272;2023-08-30T22:20:00;58.8;47.0;
49686;PMS5003;36064;38.180;-122.272;2023-08-30T22:25:00;59.2;48.4;
49686;PMS5003;36064;38.180;-122.272;2023-08-30T22:30:00;56.6;46.2;
49686;PMS5003;36064;38.180;-122.272;2023-08-30T22:35:01;58.8;48.2;
49686;PMS5003;36064;38.180;-122.272;2023-08-30T22:40:01;57.8;45.8;
49686;PMS5003;36064;38.180;-122.272;2023-08-30T22:45:00;54.4;45.0;
49686;PMS5003;36064;38.180;-122.272;2023-08-30T22:50:00;56.6;46.2;
49686;PMS5003;36064;38.180;-122.272;2023-08-30T22:55:00;53.6;43.4;
49686;PMS5003;36064;38.180;-122.272;2023-08-30T23:00:01;55.0;43.8;
49686;PMS5003;36064;38.180;-122.272;2023-08-30T23:05:01;54.2;44.8;
49686;PMS5003;36064;38.180;-122.272;2023-08-30T23:10:01;55.6;46.4;
49686;PMS5003;36064;38.180;-122.272;2023-08-30T23:15:00;55.4;45.4;
49686;PMS5003;36064;38.180;-122.272;2023-08-30T23:20:00;54.2;45.2;
49686;PMS5003;36064;38.180;-122.272;2023-08-30T23:25:00;55.0;44.4;
49686;PMS5003;36064;38.180;-122.272;2023-08-30T23:30:00;54.2;44.2;
49686;PMS5003;36064;38.180;-122.272;2023-08-30T23:35:00;59.8;47.6;
49686;PMS5003;36064;38.180;-122.272;2023-08-30T23:40:00;60.0;48.6;
49686;PMS5003;36064;38.180;-122.272;2023-08-30T23:45:00;65.6;52.6;
49686;PMS5003;36064;38.180;-122.272;2023-08-30T23:50:00;66.8;53.2;
49686;PMS5003;36064;38.180;-122.272;2023-08-30T23:55:01;62.2;50.2;
